createdAt,value
2022-12-31T00:01:22.981Z,67.70
2022-12-31T00:17:12.698Z,48.40
2022-12-31T00:20:15.393Z,46.90
2022-12-31T00:28:50.508Z,37.30
2022-12-31T00:31:53.083Z,35.30
2022-12-31T00:34:56.490Z,32.70
2022-12-31T00:41:01.414Z,28.50
2022-12-31T00:44:06.915Z,31.60
2022-12-31T00:47:12.423Z,34.60
2022-12-31T00:50:15.213Z,35.50
2022-12-31T00:53:17.489Z,31.30
2022-12-31T00:59:29.973Z,31.80
2022-12-31T01:02:32.563Z,36.00
2022-12-31T01:05:36.943Z,29.00
2022-12-31T01:08:39.366Z,34.00
2022-12-31T01:11:41.969Z,33.80
2022-12-31T01:14:48.308Z,37.20
2022-12-31T01:17:52.958Z,34.80
2022-12-31T01:25:06.276Z,35.70
2022-12-31T01:30:10.773Z,34.40
2022-12-31T01:46:16.922Z,34.30
2022-12-31T01:53:40.852Z,35.90
2022-12-31T02:01:37.924Z,30.30
2022-12-31T02:04:53.367Z,31.40
2022-12-31T02:08:13.591Z,30.30
2022-12-31T02:12:00.622Z,30.30
2022-12-31T02:15:15.123Z,25.80
2022-12-31T02:18:49.694Z,27.70
2022-12-31T02:22:28.007Z,26.10
2022-12-31T02:26:02.152Z,26.90
2022-12-31T02:30:06.658Z,28.50
2022-12-31T02:34:28.755Z,26.60
2022-12-31T02:38:49.378Z,25.90
2022-12-31T02:41:57.379Z,23.60
2022-12-31T02:44:59.590Z,25.00
2022-12-31T02:51:33.546Z,25.70
2022-12-31T02:55:13.312Z,25.90
2022-12-31T02:58:22.244Z,25.60
2022-12-31T03:01:54.005Z,26.50
2022-12-31T03:05:19.537Z,24.90
2022-12-31T03:09:15.201Z,25.10
2022-12-31T03:24:28.807Z,22.40
2022-12-31T03:27:30.881Z,18.40
2022-12-31T03:30:33.934Z,19.70
2022-12-31T03:33:39.349Z,18.40
2022-12-31T03:36:41.407Z,18.20
2022-12-31T03:39:43.571Z,17.10
2022-12-31T03:42:46.054Z,16.10
2022-12-31T03:45:53.193Z,15.70
2022-12-31T03:48:56.568Z,17.20
2022-12-31T03:51:59.216Z,14.80
2022-12-31T03:55:05.324Z,15.50
2022-12-31T03:58:07.959Z,14.20
2022-12-31T04:01:10.434Z,14.30
2022-12-31T04:07:14.565Z,16.00
2022-12-31T04:10:24.964Z,14.00
2022-12-31T04:13:58.787Z,14.10
2022-12-31T04:17:16.353Z,14.50
2022-12-31T04:20:21.045Z,14.50
2022-12-31T04:23:49.340Z,13.80
2022-12-31T04:29:32.728Z,14.40
2022-12-31T04:33:09.261Z,16.60
2022-12-31T04:56:44.296Z,15.50
2022-12-31T05:00:51.467Z,13.60
2022-12-31T05:09:57.650Z,16.80
2022-12-31T05:13:55.908Z,16.40
2022-12-31T05:17:11.337Z,13.90
2022-12-31T05:20:15.437Z,17.80
2022-12-31T05:23:19.092Z,14.30
2022-12-31T05:26:22.588Z,16.70
2022-12-31T05:29:25.971Z,14.80
2022-12-31T05:32:29.727Z,14.40
2022-12-31T05:35:33.328Z,15.10
2022-12-31T05:38:38.520Z,15.00
2022-12-31T05:41:42.009Z,14.70
2022-12-31T05:44:47.185Z,17.30
2022-12-31T05:47:50.596Z,16.00
2022-12-31T05:50:54.215Z,14.30
2022-12-31T05:53:57.907Z,12.90
2022-12-31T05:57:01.306Z,14.80
2022-12-31T06:00:07.014Z,14.40
2022-12-31T06:03:16.835Z,15.90
2022-12-31T06:06:20.165Z,16.50
2022-12-31T06:09:23.718Z,15.20
2022-12-31T06:12:27.056Z,15.50
2022-12-31T06:15:30.721Z,15.70
2022-12-31T06:18:34.368Z,16.30
2022-12-31T06:21:39.589Z,15.80
2022-12-31T06:24:44.010Z,16.20
2022-12-31T06:27:47.465Z,14.20
2022-12-31T06:30:50.850Z,16.00
2022-12-31T06:33:54.596Z,14.10
2022-12-31T06:36:59.370Z,16.20
2022-12-31T06:40:03.266Z,13.70
2022-12-31T06:43:06.649Z,15.20
2022-12-31T06:46:14.968Z,14.80
2022-12-31T06:49:18.394Z,15.50
2022-12-31T06:52:22.588Z,14.00
2022-12-31T06:55:29.758Z,13.80
2022-12-31T06:58:33.633Z,14.20
2022-12-31T07:01:44.447Z,15.30
2022-12-31T07:05:29.596Z,15.70
2022-12-31T07:08:57.518Z,13.70
2022-12-31T07:12:26.221Z,15.00
2022-12-31T07:16:08.397Z,17.00
2022-12-31T07:20:05.185Z,15.10
2022-12-31T07:23:24.399Z,14.00
2022-12-31T07:27:41.158Z,21.80
2022-12-31T07:31:06.545Z,14.20
2022-12-31T07:34:43.162Z,14.30
2022-12-31T07:38:08.805Z,13.40
2022-12-31T07:41:49.231Z,15.50
2022-12-31T07:45:14.621Z,16.60
2022-12-31T07:48:26.649Z,19.60
2022-12-31T07:51:30.235Z,16.90
2022-12-31T07:54:33.564Z,15.50
2022-12-31T07:57:55.700Z,13.70
2022-12-31T08:01:01.008Z,14.40
2022-12-31T08:04:04.412Z,16.20
2022-12-31T08:07:35.009Z,18.30
2022-12-31T08:11:02.098Z,16.20
2022-12-31T08:14:10.200Z,12.60
2022-12-31T08:17:15.608Z,18.30
2022-12-31T08:20:19.091Z,19.70
2022-12-31T08:23:28.587Z,17.40
2022-12-31T08:26:42.028Z,15.50
2022-12-31T08:30:07.400Z,14.90
2022-12-31T08:33:22.568Z,15.90
2022-12-31T08:36:37.557Z,21.10
2022-12-31T08:40:08.511Z,19.50
2022-12-31T08:43:21.033Z,18.10
2022-12-31T08:49:49.714Z,14.80
2022-12-31T08:52:53.428Z,14.40
2022-12-31T08:56:08.054Z,13.20
2022-12-31T08:59:36.745Z,15.60
2022-12-31T09:03:03.466Z,13.20
2022-12-31T09:06:16.027Z,14.50
2022-12-31T09:09:25.044Z,13.50
2022-12-31T09:12:49.319Z,15.60
2022-12-31T09:16:17.506Z,14.00
2022-12-31T09:19:20.919Z,14.70
2022-12-31T09:22:24.471Z,13.20
2022-12-31T09:25:29.093Z,15.40
2022-12-31T09:29:24.830Z,12.10
2022-12-31T09:32:46.473Z,13.20
2022-12-31T09:36:01.341Z,12.50
2022-12-31T09:39:16.857Z,13.00
2022-12-31T09:43:03.329Z,14.80
2022-12-31T09:46:21.352Z,11.70
2022-12-31T09:49:47.657Z,13.70
2022-12-31T09:53:10.173Z,14.00
2022-12-31T09:59:45.755Z,11.40
2022-12-31T10:03:17.154Z,11.40
2022-12-31T10:06:26.155Z,11.80
2022-12-31T10:09:38.317Z,14.40
2022-12-31T10:13:03.683Z,12.90
2022-12-31T10:16:28.821Z,12.70
2022-12-31T10:20:10.606Z,9.90
2022-12-31T10:23:32.103Z,11.30
2022-12-31T10:27:09.375Z,15.50
2022-12-31T10:30:20.421Z,15.00
2022-12-31T10:34:23.074Z,13.70
2022-12-31T10:37:33.199Z,10.90
2022-12-31T10:40:42.603Z,12.20
2022-12-31T10:44:15.067Z,11.60
2022-12-31T10:50:55.018Z,8.40
2022-12-31T10:57:36.165Z,9.90
2022-12-31T11:01:06.210Z,13.20
2022-12-31T11:04:27.929Z,9.50
2022-12-31T11:08:02.069Z,10.60
2022-12-31T11:11:14.000Z,10.20
2022-12-31T11:14:42.825Z,9.00
2022-12-31T11:17:48.563Z,10.00
2022-12-31T11:21:17.210Z,13.30
2022-12-31T11:24:47.221Z,9.60
2022-12-31T11:27:56.415Z,11.20
2022-12-31T11:31:02.658Z,9.30
2022-12-31T11:34:38.001Z,13.70
2022-12-31T11:37:54.631Z,9.70
2022-12-31T11:41:08.249Z,11.10
2022-12-31T11:44:35.583Z,10.80
2022-12-31T11:48:28.706Z,11.00
2022-12-31T11:51:25.708Z,12.90
2022-12-31T11:54:43.032Z,11.10
2022-12-31T11:57:51.310Z,15.90
2022-12-31T12:01:33.738Z,12.40
2022-12-31T12:04:37.032Z,13.10
2022-12-31T12:07:40.251Z,11.20
2022-12-31T12:10:51.033Z,12.90
2022-12-31T12:13:54.425Z,13.40
2022-12-31T12:17:04.318Z,15.00
2022-12-31T12:20:24.708Z,11.40
2022-12-31T12:23:28.060Z,12.50
2022-12-31T12:26:41.671Z,12.90
2022-12-31T12:29:47.491Z,14.70
2022-12-31T12:33:02.279Z,12.00
2022-12-31T12:36:11.497Z,13.00
2022-12-31T12:39:32.585Z,14.30
2022-12-31T12:42:36.182Z,14.10
2022-12-31T12:45:51.357Z,15.60
2022-12-31T12:48:57.513Z,13.10
2022-12-31T12:52:27.585Z,20.00
2022-12-31T12:55:43.233Z,13.30
2022-12-31T12:58:58.471Z,13.90
2022-12-31T13:02:39.471Z,14.20
2022-12-31T13:05:52.494Z,12.10
2022-12-31T13:09:01.599Z,14.60
2022-12-31T13:12:08.065Z,14.10
2022-12-31T13:15:34.162Z,14.50
2022-12-31T13:18:49.259Z,14.20
2022-12-31T13:22:04.236Z,14.90
2022-12-31T13:25:28.852Z,15.10
2022-12-31T13:28:34.330Z,14.00
2022-12-31T13:31:39.627Z,18.70
2022-12-31T13:34:46.492Z,14.90
2022-12-31T13:37:53.118Z,13.70
2022-12-31T13:41:18.397Z,14.00
2022-12-31T13:44:30.957Z,16.10
2022-12-31T13:47:40.862Z,15.10
2022-12-31T13:51:01.848Z,14.20
2022-12-31T13:54:24.644Z,14.20
2022-12-31T13:57:37.470Z,19.10
2022-12-31T14:01:01.907Z,19.10
2022-12-31T14:04:19.955Z,19.20
2022-12-31T14:07:45.395Z,20.10
2022-12-31T14:10:58.199Z,24.30
2022-12-31T14:14:01.462Z,18.30
2022-12-31T14:17:11.299Z,16.90
2022-12-31T14:20:29.011Z,20.20
2022-12-31T14:23:59.543Z,15.80
2022-12-31T14:27:09.243Z,16.00
2022-12-31T14:30:22.072Z,17.00
2022-12-31T14:33:41.748Z,16.30
2022-12-31T14:37:00.265Z,18.70
2022-12-31T14:40:37.191Z,16.90
2022-12-31T14:43:48.474Z,16.30
2022-12-31T14:47:08.552Z,14.30
2022-12-31T14:50:15.441Z,15.90
2022-12-31T14:53:25.013Z,17.40
2022-12-31T14:56:33.372Z,14.20
2022-12-31T14:59:40.387Z,13.50
2022-12-31T15:02:51.120Z,12.30
2022-12-31T15:06:03.739Z,22.00
2022-12-31T15:12:24.417Z,14.60
2022-12-31T15:15:33.505Z,16.40
2022-12-31T15:18:55.471Z,16.40
2022-12-31T15:22:14.290Z,16.80
2022-12-31T15:25:33.863Z,16.00
2022-12-31T15:28:41.030Z,13.40
2022-12-31T15:31:49.944Z,15.30
2022-12-31T15:35:24.161Z,15.90
2022-12-31T15:38:35.065Z,15.20
2022-12-31T15:41:46.147Z,23.90
2022-12-31T15:45:06.407Z,15.20
2022-12-31T15:48:23.898Z,16.20
2022-12-31T15:51:34.599Z,15.10
2022-12-31T15:54:42.546Z,16.00
2022-12-31T15:57:46.562Z,15.20
2022-12-31T16:01:05.005Z,15.30
2022-12-31T16:04:16.637Z,17.40
2022-12-31T16:07:20.682Z,21.30
2022-12-31T16:10:28.207Z,18.60
2022-12-31T16:13:35.028Z,18.30
2022-12-31T16:16:38.593Z,18.10
2022-12-31T16:19:49.083Z,19.50
2022-12-31T16:22:56.251Z,16.40
2022-12-31T16:26:02.547Z,16.30
2022-12-31T16:29:05.981Z,16.20
2022-12-31T16:32:15.855Z,16.20
2022-12-31T16:35:28.676Z,15.50
2022-12-31T16:38:37.039Z,16.00
2022-12-31T16:41:44.166Z,16.30
2022-12-31T16:44:48.573Z,16.80
2022-12-31T16:47:52.095Z,13.90
2022-12-31T16:50:56.984Z,14.80
2022-12-31T16:54:02.140Z,13.50
2022-12-31T16:57:19.262Z,17.80
2022-12-31T17:00:25.318Z,16.20
2022-12-31T17:03:29.729Z,15.90
2022-12-31T17:06:33.793Z,18.90
2022-12-31T17:09:38.011Z,18.10
2022-12-31T17:16:20.436Z,20.30
2022-12-31T17:19:38.894Z,19.80
2022-12-31T17:22:44.357Z,17.60
2022-12-31T17:25:47.722Z,16.50
2022-12-31T17:28:53.273Z,16.00
2022-12-31T17:32:23.795Z,12.30
2022-12-31T17:35:30.944Z,15.00
2022-12-31T17:38:36.286Z,14.60
2022-12-31T17:41:39.523Z,14.50
2022-12-31T17:44:44.730Z,14.70
2022-12-31T17:47:51.190Z,13.70
2022-12-31T17:51:01.597Z,15.00
2022-12-31T17:54:17.941Z,13.60
2022-12-31T17:57:25.856Z,13.20
2022-12-31T18:00:29.368Z,13.20
2022-12-31T18:03:32.767Z,13.20
2022-12-31T18:06:36.000Z,14.80
2022-12-31T18:09:39.227Z,14.80
2022-12-31T18:12:44.610Z,15.90
2022-12-31T18:15:48.783Z,16.10
2022-12-31T18:18:52.122Z,14.60
2022-12-31T18:21:57.709Z,19.20
2022-12-31T18:25:01.158Z,19.50
2022-12-31T18:28:09.548Z,19.10
2022-12-31T18:31:39.502Z,17.00
2022-12-31T18:34:42.710Z,15.20
2022-12-31T18:37:46.440Z,16.10
2022-12-31T18:40:59.121Z,16.20
2022-12-31T18:44:02.404Z,18.20
2022-12-31T18:47:15.095Z,17.00
2022-12-31T18:53:40.783Z,17.30
2022-12-31T18:56:48.313Z,15.30
2022-12-31T18:59:55.102Z,16.10
2022-12-31T19:02:58.642Z,18.60
2022-12-31T19:06:02.138Z,17.00
2022-12-31T19:09:13.258Z,17.90
2022-12-31T19:12:29.786Z,18.50
2022-12-31T19:15:39.059Z,17.00
2022-12-31T19:18:42.731Z,17.00
2022-12-31T19:21:46.266Z,18.90
2022-12-31T19:24:49.636Z,15.80
2022-12-31T19:27:53.434Z,18.80
2022-12-31T19:30:56.719Z,20.30
2022-12-31T19:34:00.004Z,19.00
2022-12-31T19:37:03.455Z,17.90
2022-12-31T19:40:07.900Z,16.40
2022-12-31T19:43:14.597Z,15.40
2022-12-31T19:46:18.821Z,15.80
2022-12-31T19:49:22.144Z,15.80
2022-12-31T19:52:25.605Z,15.70
2022-12-31T19:55:28.880Z,14.10
2022-12-31T19:58:32.117Z,14.40
2022-12-31T20:01:35.547Z,15.20
2022-12-31T20:04:38.797Z,13.20
2022-12-31T20:07:42.182Z,14.40
2022-12-31T20:10:46.067Z,14.70
2022-12-31T20:13:52.225Z,14.20
2022-12-31T20:16:56.226Z,13.30
2022-12-31T20:19:59.681Z,14.10
2022-12-31T20:23:02.942Z,10.80
2022-12-31T20:26:06.223Z,16.30
2022-12-31T20:29:09.471Z,15.10
2022-12-31T20:32:12.753Z,19.00
2022-12-31T20:35:16.343Z,19.50
2022-12-31T20:38:19.640Z,14.80
2022-12-31T20:41:23.644Z,17.50
2022-12-31T20:44:26.936Z,15.60
2022-12-31T20:47:30.088Z,17.10
2022-12-31T20:50:33.288Z,19.30
2022-12-31T20:53:36.715Z,15.10
2022-12-31T20:56:41.572Z,16.40
2022-12-31T20:59:44.793Z,17.40
2022-12-31T21:02:56.361Z,18.20
2022-12-31T21:06:01.219Z,14.40
2022-12-31T21:09:07.603Z,15.10
2022-12-31T21:12:32.518Z,16.80
2022-12-31T21:15:35.898Z,16.50
2022-12-31T21:18:39.213Z,15.90
2022-12-31T21:21:42.558Z,15.50
2022-12-31T21:24:48.233Z,18.90
2022-12-31T21:27:51.500Z,16.00
2022-12-31T21:31:03.731Z,17.20
2022-12-31T21:34:08.686Z,16.90
2022-12-31T21:37:11.977Z,15.10
2022-12-31T21:40:15.299Z,16.40
2022-12-31T21:43:18.565Z,16.30
2022-12-31T21:46:21.795Z,11.70
2022-12-31T21:49:25.479Z,14.80
2022-12-31T21:52:31.695Z,15.70
2022-12-31T21:55:56.917Z,14.60
2022-12-31T21:59:18.696Z,26.30
2022-12-31T22:02:41.170Z,17.30
2022-12-31T22:06:16.195Z,17.80
2022-12-31T22:09:19.490Z,15.60
2022-12-31T22:12:22.745Z,14.70
2022-12-31T22:15:26.004Z,15.30
2022-12-31T22:18:29.639Z,14.90
2022-12-31T22:21:32.973Z,14.40
2022-12-31T22:24:36.153Z,15.10
2022-12-31T22:27:39.614Z,16.00
2022-12-31T22:30:42.773Z,15.00
2022-12-31T22:33:46.458Z,15.70
2022-12-31T22:36:49.716Z,16.10
2022-12-31T22:39:52.941Z,17.20
2022-12-31T22:42:56.163Z,14.50
2022-12-31T22:45:59.396Z,15.30
2022-12-31T22:49:04.436Z,19.50
2022-12-31T22:52:08.992Z,13.80
2022-12-31T22:55:12.267Z,13.10
2022-12-31T22:58:15.508Z,12.60
2022-12-31T23:01:22.626Z,12.30
2022-12-31T23:04:25.993Z,18.50
2022-12-31T23:07:29.223Z,17.30
2022-12-31T23:10:50.870Z,24.00
2022-12-31T23:14:12.688Z,22.50
2022-12-31T23:17:43.560Z,21.70
2022-12-31T23:21:05.308Z,20.90
2022-12-31T23:24:15.699Z,18.70
2022-12-31T23:27:22.651Z,16.30
2022-12-31T23:30:25.964Z,18.80
2022-12-31T23:33:29.135Z,22.60
2022-12-31T23:36:32.641Z,21.00
2022-12-31T23:39:35.897Z,25.50
2022-12-31T23:42:39.370Z,24.70
2022-12-31T23:45:42.550Z,25.10
2022-12-31T23:48:45.754Z,24.50
2022-12-31T23:51:49.065Z,25.10
2022-12-31T23:54:52.348Z,24.70
2022-12-31T23:57:55.531Z,26.10
